Terminal Aerodrome Forecast
Issued by NWS New Orleans/Baton Rouge, LA

Home | Current Version | Previous Version | Text Only | Print | Product List | Glossary On
Versions: 1 2 3 4 5 6 7 8 9 10 11 12 13 14 15 16 17 18 19 20 21 22 23 24 25 26 27 28 29
000
FTUS44 KLIX 300532
TAFNEW
TAF
KNEW 300532Z 3006/0106 24012KT P6SM FEW060 SCT250
     FM301400 24012G19KT P6SM SCT035 SCT160
     FM301730 24014KT P6SM VCTS SCT050CB SCT120 BKN250
     FM010100 23012KT P6SM SCT060 SCT250=

USA.gov is the U.S. government's official web portal to all federal, state and local government web resources and services.